createdAt,value
2018-11-11T00:00:56.845Z,5.80
2018-11-11T00:03:24.045Z,6.00
2018-11-11T00:05:51.341Z,5.67
2018-11-11T00:08:18.639Z,6.70
2018-11-11T00:10:45.912Z,5.63
2018-11-11T00:13:13.188Z,6.07
2018-11-11T00:15:40.420Z,6.20
2018-11-11T00:18:07.702Z,7.00
2018-11-11T00:20:34.992Z,6.80
2018-11-11T00:23:02.272Z,6.20
2018-11-11T00:25:29.585Z,6.03
2018-11-11T00:27:56.783Z,6.30
2018-11-11T00:30:24.010Z,6.17
2018-11-11T00:32:51.231Z,6.20
2018-11-11T00:35:18.505Z,6.87
2018-11-11T00:37:45.757Z,6.53
2018-11-11T00:40:14.817Z,6.13
2018-11-11T00:42:42.325Z,6.10
2018-11-11T00:45:10.237Z,6.50
2018-11-11T00:47:37.485Z,6.33
2018-11-11T00:50:05.950Z,6.43
2018-11-11T00:52:33.172Z,5.93
2018-11-11T00:55:00.539Z,7.20
2018-11-11T00:57:27.737Z,5.67
2018-11-11T00:59:54.984Z,6.70
2018-11-11T01:02:22.241Z,6.07
2018-11-11T01:04:49.511Z,6.30
2018-11-11T01:07:16.796Z,6.67
2018-11-11T01:09:44.029Z,6.90
2018-11-11T01:12:11.284Z,6.20
2018-11-11T01:14:38.861Z,5.40
2018-11-11T01:17:06.556Z,6.00
2018-11-11T01:19:33.765Z,5.27
2018-11-11T01:24:51.056Z,5.13
2018-11-11T01:27:18.356Z,4.63
2018-11-11T01:29:45.560Z,5.53
2018-11-11T01:32:12.855Z,6.13
2018-11-11T01:34:40.047Z,6.33
2018-11-11T01:37:07.325Z,5.83
2018-11-11T01:39:34.557Z,5.93
2018-11-11T01:42:01.897Z,6.40
2018-11-11T01:44:29.189Z,6.40
2018-11-11T01:46:56.487Z,7.07
2018-11-11T01:49:23.732Z,6.73
2018-11-11T01:51:51.508Z,6.03
2018-11-11T01:54:18.765Z,6.20
2018-11-11T01:56:46.932Z,8.10
2018-11-11T01:59:14.267Z,7.23
2018-11-11T02:01:41.514Z,6.30
2018-11-11T02:04:08.726Z,5.13
2018-11-11T02:06:35.967Z,6.40
2018-11-11T02:09:05.194Z,5.37
2018-11-11T02:11:32.394Z,5.57
2018-11-11T02:13:59.622Z,5.57
2018-11-11T02:16:26.897Z,5.63
2018-11-11T02:18:54.176Z,5.33
2018-11-11T02:21:21.675Z,5.93
2018-11-11T02:23:48.934Z,5.40
2018-11-11T02:26:16.214Z,6.27
2018-11-11T02:28:43.493Z,5.43
2018-11-11T02:31:10.779Z,5.70
2018-11-11T02:33:38.552Z,5.97
2018-11-11T02:36:05.809Z,5.70
2018-11-11T02:38:33.106Z,5.73
2018-11-11T02:41:00.345Z,4.97
2018-11-11T02:43:27.556Z,5.30
2018-11-11T02:45:54.765Z,5.90
2018-11-11T02:48:22.066Z,5.73
2018-11-11T02:50:49.314Z,5.00
2018-11-11T02:53:16.557Z,5.13
2018-11-11T02:55:43.865Z,5.97
2018-11-11T02:58:11.148Z,5.17
2018-11-11T03:00:38.407Z,5.93
2018-11-11T03:03:05.648Z,5.20
2018-11-11T03:05:32.882Z,4.63
2018-11-11T03:08:00.178Z,4.13
2018-11-11T03:10:27.424Z,3.73
2018-11-11T03:12:54.677Z,3.43
2018-11-11T03:15:21.886Z,3.03
2018-11-11T03:17:49.494Z,2.73
2018-11-11T03:20:17.047Z,3.00
2018-11-11T03:22:44.402Z,3.13
2018-11-11T03:25:13.002Z,3.40
2018-11-11T03:27:40.657Z,4.10
2018-11-11T03:30:09.555Z,4.10
2018-11-11T03:32:37.143Z,3.80
2018-11-11T03:35:06.390Z,4.87
2018-11-11T03:37:33.601Z,4.80
2018-11-11T03:40:00.811Z,4.60
2018-11-11T03:42:28.123Z,5.57
2018-11-11T03:44:55.360Z,5.60
2018-11-11T03:47:22.592Z,5.73
2018-11-11T03:49:49.822Z,5.20
2018-11-11T03:52:17.121Z,5.77
2018-11-11T03:54:44.378Z,6.53
2018-11-11T03:57:11.667Z,5.83
2018-11-11T03:59:39.024Z,7.10
2018-11-11T04:02:06.312Z,7.17
2018-11-11T04:04:33.913Z,6.90
2018-11-11T04:07:01.163Z,6.90
2018-11-11T04:09:28.439Z,6.63
2018-11-11T04:11:55.645Z,6.23
2018-11-11T04:14:22.874Z,6.70
2018-11-11T04:16:50.089Z,7.37
2018-11-11T04:19:17.343Z,7.57
2018-11-11T04:21:46.223Z,6.60
2018-11-11T04:24:15.096Z,7.13
2018-11-11T04:26:42.778Z,7.27
2018-11-11T04:29:10.016Z,6.93
2018-11-11T04:31:37.231Z,6.43
2018-11-11T04:34:04.694Z,6.90
2018-11-11T04:36:31.918Z,6.73
2018-11-11T04:38:59.252Z,7.03
2018-11-11T04:41:26.501Z,6.53
2018-11-11T04:43:53.786Z,6.67
2018-11-11T04:46:21.176Z,6.43
2018-11-11T04:48:48.453Z,7.20
2018-11-11T04:51:15.656Z,6.90
2018-11-11T04:53:42.904Z,6.63
2018-11-11T04:56:10.145Z,6.83
2018-11-11T04:58:37.412Z,6.70
2018-11-11T05:01:04.721Z,6.60
2018-11-11T05:03:32.197Z,7.53
2018-11-11T05:05:59.474Z,6.90
2018-11-11T05:08:26.806Z,7.20
2018-11-11T05:10:54.062Z,7.23
2018-11-11T05:13:21.357Z,6.77
2018-11-11T05:15:48.616Z,6.17
2018-11-11T05:18:15.918Z,7.17
2018-11-11T05:20:43.870Z,6.83
2018-11-11T05:23:11.106Z,7.17
2018-11-11T05:25:38.393Z,6.60
2018-11-11T05:28:05.710Z,6.63
2018-11-11T05:30:32.971Z,7.03
2018-11-11T05:33:00.210Z,7.00
2018-11-11T05:35:27.418Z,6.30
2018-11-11T05:37:54.623Z,6.83
2018-11-11T05:40:21.908Z,7.30
2018-11-11T05:42:49.127Z,7.20
2018-11-11T05:45:16.440Z,6.50
2018-11-11T05:47:44.680Z,6.93
2018-11-11T05:50:13.243Z,6.67
2018-11-11T05:52:40.838Z,7.43
2018-11-11T05:55:08.435Z,7.40
2018-11-11T05:57:35.675Z,7.23
2018-11-11T06:00:03.069Z,7.10
2018-11-11T06:02:30.391Z,7.13
2018-11-11T06:04:57.782Z,6.60
2018-11-11T06:07:25.057Z,7.50
2018-11-11T06:09:52.620Z,6.77
2018-11-11T06:12:20.117Z,8.30
2018-11-11T06:14:48.226Z,7.17
2018-11-11T06:17:15.702Z,7.77
2018-11-11T06:19:43.407Z,7.13
2018-11-11T06:22:12.132Z,7.30
2018-11-11T06:24:39.934Z,7.37
2018-11-11T06:27:07.962Z,7.37
2018-11-11T06:29:35.799Z,7.27
2018-11-11T06:32:03.492Z,7.70
2018-11-11T06:34:31.174Z,8.20
2018-11-11T06:36:59.372Z,8.13
2018-11-11T06:39:26.765Z,7.93
2018-11-11T06:41:54.156Z,8.67
2018-11-11T06:44:21.764Z,8.33
2018-11-11T06:46:49.174Z,7.97
2018-11-11T06:49:16.457Z,7.53
2018-11-11T06:51:44.072Z,7.53
2018-11-11T06:54:11.419Z,7.40
2018-11-11T06:56:38.820Z,8.03
2018-11-11T06:59:06.747Z,6.87
2018-11-11T07:01:34.405Z,7.77
2018-11-11T07:04:02.639Z,7.27
2018-11-11T07:06:30.525Z,8.13
2018-11-11T07:08:58.092Z,7.93
2018-11-11T07:11:26.146Z,8.53
2018-11-11T07:13:53.560Z,7.93
2018-11-11T07:16:20.953Z,8.30
2018-11-11T07:18:48.324Z,9.17
2018-11-11T07:21:16.419Z,8.20
2018-11-11T07:23:44.179Z,8.27
2018-11-11T07:26:11.806Z,8.93
2018-11-11T07:28:39.779Z,8.77
2018-11-11T07:31:08.510Z,8.27
2018-11-11T07:33:36.961Z,8.63
2018-11-11T07:36:07.143Z,9.77
2018-11-11T07:38:35.249Z,8.83
2018-11-11T07:41:04.102Z,8.80
2018-11-11T07:43:32.179Z,9.00
2018-11-11T07:45:59.885Z,9.43
2018-11-11T07:48:27.194Z,9.00
2018-11-11T07:50:58.417Z,9.40
2018-11-11T07:53:26.197Z,9.77
2018-11-11T07:55:54.442Z,8.83
2018-11-11T07:58:23.006Z,8.57
2018-11-11T08:00:50.680Z,8.83
2018-11-11T08:03:18.521Z,8.50
2018-11-11T08:05:46.209Z,9.50
2018-11-11T08:08:15.053Z,9.33
2018-11-11T08:10:54.125Z,8.53
2018-11-11T08:13:22.720Z,8.33
2018-11-11T08:15:50.445Z,8.90
2018-11-11T08:18:18.079Z,8.13
2018-11-11T08:20:45.981Z,7.43
2018-11-11T08:23:15.120Z,8.40
2018-11-11T08:25:43.776Z,8.73
2018-11-11T08:28:11.930Z,8.07
2018-11-11T08:30:39.783Z,8.80
2018-11-11T08:33:09.432Z,8.70
2018-11-11T08:35:37.029Z,8.53
2018-11-11T08:38:05.846Z,9.00
2018-11-11T08:40:33.630Z,8.40
2018-11-11T08:43:03.569Z,8.07
2018-11-11T08:45:30.965Z,8.30
2018-11-11T08:48:00.584Z,8.30
2018-11-11T08:50:28.509Z,7.53
2018-11-11T08:52:56.371Z,7.93
2018-11-11T08:55:25.873Z,7.60
2018-11-11T08:57:55.191Z,8.30
2018-11-11T09:00:23.931Z,8.27
2018-11-11T09:02:51.600Z,8.50
2018-11-11T09:05:19.558Z,9.57
2018-11-11T09:07:47.902Z,8.80
2018-11-11T09:10:15.441Z,10.00
2018-11-11T09:12:43.284Z,8.93
2018-11-11T09:15:14.148Z,9.13
2018-11-11T09:17:45.687Z,9.23
2018-11-11T09:20:15.341Z,8.47
2018-11-11T09:22:42.856Z,8.87
2018-11-11T09:25:10.790Z,9.23
2018-11-11T09:27:39.325Z,8.40
2018-11-11T09:30:08.947Z,9.17
2018-11-11T09:32:36.390Z,9.10
2018-11-11T09:35:05.837Z,7.53
2018-11-11T09:37:33.294Z,8.47
2018-11-11T09:40:00.924Z,8.27
2018-11-11T09:42:28.358Z,7.17
2018-11-11T09:44:55.799Z,6.97
2018-11-11T09:47:23.390Z,7.17
2018-11-11T09:49:50.729Z,6.33
2018-11-11T09:52:18.286Z,6.43
2018-11-11T09:54:45.730Z,6.07
2018-11-11T09:57:13.161Z,5.13
2018-11-11T09:59:40.611Z,6.17
2018-11-11T10:02:08.117Z,5.97
2018-11-11T10:04:39.566Z,5.90
2018-11-11T10:07:17.672Z,5.87
2018-11-11T10:10:25.165Z,5.80
2018-11-11T10:13:00.461Z,5.00
2018-11-11T10:15:32.647Z,5.20
2018-11-11T10:18:17.259Z,4.73
2018-11-11T10:21:04.146Z,5.07
2018-11-11T10:23:38.175Z,5.27
2018-11-11T10:26:15.626Z,4.47
2018-11-11T10:30:49.561Z,4.00
2018-11-11T10:33:29.928Z,3.53
2018-11-11T10:36:03.662Z,3.93
2018-11-11T10:38:35.842Z,2.70
2018-11-11T10:41:05.688Z,2.47
2018-11-11T10:44:10.494Z,1.77
2018-11-11T10:47:09.400Z,1.40
2018-11-11T10:49:51.844Z,2.00
2018-11-11T10:52:19.480Z,1.90
2018-11-11T10:54:48.707Z,1.93
2018-11-11T10:57:17.187Z,2.03
2018-11-11T10:59:44.906Z,2.10
2018-11-11T11:02:18.283Z,1.80
2018-11-11T11:04:51.697Z,2.50
2018-11-11T11:07:19.840Z,1.97
2018-11-11T11:09:47.912Z,2.23
2018-11-11T11:12:16.233Z,2.20
2018-11-11T11:14:43.593Z,1.83
2018-11-11T11:17:11.392Z,1.87
2018-11-11T11:19:38.857Z,2.03
2018-11-11T11:22:07.447Z,1.50
2018-11-11T11:24:35.046Z,1.20
2018-11-11T11:27:03.383Z,1.33
2018-11-11T11:29:32.567Z,0.93
2018-11-11T11:32:00.945Z,0.93
2018-11-11T11:34:28.258Z,1.40
2018-11-11T11:36:56.336Z,1.20
2018-11-11T11:39:23.790Z,1.10
2018-11-11T11:41:51.589Z,0.70
2018-11-11T11:44:19.571Z,0.70
2018-11-11T11:46:46.881Z,0.90
2018-11-11T11:49:14.254Z,1.07
2018-11-11T11:51:41.715Z,0.70
2018-11-11T11:54:09.276Z,0.80
2018-11-11T11:56:37.311Z,0.73
2018-11-11T11:59:05.648Z,0.70
2018-11-11T12:01:33.242Z,0.60
2018-11-11T12:04:02.068Z,1.00
2018-11-11T12:06:30.122Z,1.30
2018-11-11T12:08:57.507Z,0.80
2018-11-11T12:11:24.872Z,1.00
2018-11-11T12:13:53.829Z,1.10
2018-11-11T12:16:22.075Z,1.03
2018-11-11T12:18:50.099Z,1.53
2018-11-11T12:21:18.207Z,1.60
2018-11-11T12:23:46.536Z,1.57
2018-11-11T12:26:13.839Z,1.50
2018-11-11T12:28:46.755Z,2.37
2018-11-11T12:31:14.341Z,1.87
2018-11-11T12:33:46.833Z,2.00
2018-11-11T12:36:14.839Z,2.43
2018-11-11T12:38:43.172Z,3.00
2018-11-11T12:41:10.600Z,2.63
2018-11-11T12:43:38.120Z,2.77
2018-11-11T12:46:05.474Z,2.13
2018-11-11T12:48:32.934Z,2.30
2018-11-11T12:51:00.254Z,2.13
2018-11-11T12:53:28.314Z,2.40
2018-11-11T12:55:57.053Z,2.20
2018-11-11T12:58:24.432Z,2.27
2018-11-11T13:00:52.025Z,2.00
2018-11-11T13:03:19.429Z,2.50
2018-11-11T13:05:46.825Z,2.60
2018-11-11T13:08:14.161Z,2.20
2018-11-11T13:10:41.540Z,2.20
2018-11-11T13:13:22.850Z,2.30
2018-11-11T13:16:04.440Z,3.10
2018-11-11T13:18:45.083Z,2.53
2018-11-11T13:21:13.218Z,2.03
2018-11-11T13:23:41.344Z,2.10
2018-11-11T13:26:09.935Z,2.40
2018-11-11T13:28:37.863Z,2.30
2018-11-11T13:31:06.064Z,2.37
2018-11-11T13:33:33.546Z,1.83
2018-11-11T13:36:02.458Z,2.27
2018-11-11T13:38:29.942Z,2.60
2018-11-11T13:40:57.286Z,2.20
2018-11-11T13:43:24.737Z,1.70
2018-11-11T13:45:52.053Z,2.60
2018-11-11T13:48:19.375Z,2.37
2018-11-11T13:50:46.786Z,2.23
2018-11-11T13:53:14.845Z,2.23
2018-11-11T13:55:43.057Z,2.37
2018-11-11T13:58:10.622Z,2.67
2018-11-11T14:00:37.972Z,2.00
2018-11-11T14:03:05.480Z,2.77
2018-11-11T14:05:34.140Z,2.03
2018-11-11T14:08:01.554Z,2.77
2018-11-11T14:10:29.434Z,2.30
2018-11-11T14:12:56.906Z,2.60
2018-11-11T14:15:25.495Z,2.27
2018-11-11T14:17:53.908Z,2.00
2018-11-11T14:20:22.854Z,2.10
2018-11-11T14:22:51.182Z,2.07
2018-11-11T14:25:22.596Z,2.60
2018-11-11T14:27:54.135Z,2.53
2018-11-11T14:30:27.009Z,2.93
2018-11-11T14:33:01.101Z,2.80
2018-11-11T14:35:28.806Z,2.73
2018-11-11T14:37:56.917Z,1.73
2018-11-11T14:40:27.244Z,2.23
2018-11-11T14:42:54.717Z,2.53
2018-11-11T14:45:22.712Z,2.77
2018-11-11T14:47:53.076Z,2.60
2018-11-11T14:50:26.726Z,2.37
2018-11-11T14:53:00.156Z,2.90
2018-11-11T14:55:29.057Z,2.20
2018-11-11T14:57:57.329Z,2.93
2018-11-11T15:00:27.543Z,2.27
2018-11-11T15:03:05.126Z,2.47
2018-11-11T15:05:37.758Z,2.13
2018-11-11T15:08:06.350Z,1.87
2018-11-11T15:10:37.186Z,1.90
2018-11-11T15:13:07.560Z,1.73
2018-11-11T15:15:37.524Z,2.00
2018-11-11T15:18:06.841Z,2.40
2018-11-11T15:20:36.616Z,2.13
2018-11-11T15:23:07.409Z,2.10
2018-11-11T15:25:36.217Z,1.97
2018-11-11T15:28:13.148Z,1.73
2018-11-11T15:30:48.276Z,2.20
2018-11-11T15:33:18.779Z,1.90
2018-11-11T15:35:46.559Z,2.40
2018-11-11T15:38:15.502Z,2.30
2018-11-11T15:40:44.650Z,2.40
2018-11-11T15:43:12.382Z,2.43
2018-11-11T15:45:48.825Z,2.63
2018-11-11T15:48:17.635Z,2.00
2018-11-11T15:50:45.441Z,2.23
2018-11-11T15:53:13.041Z,2.37
2018-11-11T15:55:40.653Z,2.27
2018-11-11T15:58:08.434Z,1.93
2018-11-11T16:00:37.434Z,2.00
2018-11-11T16:03:05.048Z,2.87
2018-11-11T16:05:32.245Z,2.50
2018-11-11T16:08:00.931Z,2.20
2018-11-11T16:10:29.684Z,2.10
2018-11-11T16:12:57.182Z,2.47
2018-11-11T16:15:26.301Z,1.87
2018-11-11T16:17:55.214Z,2.07
2018-11-11T16:20:23.922Z,2.73
2018-11-11T16:22:52.451Z,2.93
2018-11-11T16:25:19.892Z,3.07
2018-11-11T16:27:47.850Z,2.60
2018-11-11T16:30:17.873Z,3.30
2018-11-11T16:32:45.860Z,3.30
2018-11-11T16:35:14.345Z,2.50
2018-11-11T16:37:42.095Z,3.13
2018-11-11T16:40:12.026Z,2.77
2018-11-11T16:42:39.448Z,2.80
2018-11-11T16:45:07.888Z,3.00
2018-11-11T16:47:35.510Z,2.77
2018-11-11T16:50:03.172Z,2.40
2018-11-11T16:52:30.401Z,2.77
2018-11-11T16:54:57.608Z,2.47
2018-11-11T16:57:24.878Z,2.37
2018-11-11T16:59:52.676Z,2.80
2018-11-11T17:02:20.277Z,2.73
2018-11-11T17:04:48.330Z,2.97
2018-11-11T17:07:16.027Z,2.57
2018-11-11T17:09:43.575Z,2.70
2018-11-11T17:12:10.957Z,2.90
2018-11-11T17:14:39.662Z,3.00
2018-11-11T17:17:07.593Z,2.70
2018-11-11T17:19:35.053Z,2.93
2018-11-11T17:22:02.342Z,3.00
2018-11-11T17:24:29.610Z,3.30
2018-11-11T17:26:57.125Z,2.90
2018-11-11T17:29:24.381Z,3.53
2018-11-11T17:31:52.936Z,3.47
2018-11-11T17:34:20.329Z,3.67
2018-11-11T17:36:48.759Z,3.87
2018-11-11T17:39:16.424Z,3.73
2018-11-11T17:41:44.533Z,4.60
2018-11-11T17:44:11.942Z,4.40
2018-11-11T17:46:39.382Z,3.80
2018-11-11T17:49:06.820Z,3.60
2018-11-11T17:51:34.396Z,3.40
2018-11-11T17:54:01.657Z,3.30
2018-11-11T17:56:28.903Z,3.13
2018-11-11T17:58:56.225Z,3.90
2018-11-11T18:01:25.157Z,3.40
2018-11-11T18:03:52.569Z,3.60
2018-11-11T18:06:19.804Z,3.30
2018-11-11T18:08:47.066Z,3.17
2018-11-11T18:11:14.341Z,3.17
2018-11-11T18:13:41.699Z,3.07
2018-11-11T18:16:09.216Z,3.80
2018-11-11T18:18:36.465Z,3.60
2018-11-11T18:21:03.689Z,3.73
2018-11-11T18:23:30.934Z,3.77
2018-11-11T18:25:58.177Z,3.90
2018-11-11T18:28:25.415Z,3.50
2018-11-11T18:30:52.732Z,3.60
2018-11-11T18:33:20.728Z,4.17
2018-11-11T18:35:48.059Z,4.23
2018-11-11T18:38:16.543Z,4.23
2018-11-11T18:40:43.808Z,4.00
2018-11-11T18:43:11.096Z,3.70
2018-11-11T18:45:38.457Z,4.70
2018-11-11T18:48:06.081Z,4.17
2018-11-11T18:50:33.771Z,4.00
2018-11-11T18:53:01.522Z,4.63
2018-11-11T18:55:28.874Z,4.13
2018-11-11T18:57:57.395Z,4.67
2018-11-11T19:00:26.243Z,4.77
2018-11-11T19:02:54.434Z,4.30
2018-11-11T19:05:22.498Z,4.27
2018-11-11T19:07:50.042Z,4.63
2018-11-11T19:10:20.383Z,4.57
2018-11-11T19:12:49.489Z,4.37
2018-11-11T19:15:18.740Z,4.83
2018-11-11T19:17:46.756Z,5.17
2018-11-11T19:20:16.900Z,5.03
2018-11-11T19:22:44.480Z,5.23
2018-11-11T19:25:13.744Z,4.60
2018-11-11T19:27:42.016Z,4.60
2018-11-11T19:30:10.355Z,4.77
2018-11-11T19:32:38.365Z,4.17
2018-11-11T19:35:05.893Z,4.63
2018-11-11T19:37:33.516Z,4.17
2018-11-11T19:40:00.997Z,4.00
2018-11-11T19:42:28.371Z,4.70
2018-11-11T19:44:55.762Z,4.07
2018-11-11T19:47:23.189Z,3.97
2018-11-11T19:49:50.770Z,4.50
2018-11-11T19:52:18.128Z,3.73
2018-11-11T19:54:45.578Z,4.87
2018-11-11T19:57:12.987Z,4.67
2018-11-11T19:59:40.627Z,4.67
2018-11-11T20:02:08.215Z,4.57
2018-11-11T20:04:35.642Z,4.70
2018-11-11T20:07:03.354Z,4.70
2018-11-11T20:09:30.715Z,5.00
2018-11-11T20:11:58.352Z,4.70
2018-11-11T20:14:25.989Z,4.97
2018-11-11T20:16:53.360Z,4.87
2018-11-11T20:19:20.691Z,5.83
2018-11-11T20:21:48.005Z,4.93
2018-11-11T20:24:15.379Z,5.50
2018-11-11T20:26:42.998Z,5.03
2018-11-11T20:29:10.279Z,5.60
2018-11-11T20:31:37.597Z,6.63
2018-11-11T20:34:05.451Z,5.67
2018-11-11T20:36:33.074Z,6.57
2018-11-11T20:39:00.442Z,5.40
2018-11-11T20:41:28.187Z,5.73
2018-11-11T20:43:55.534Z,5.90
2018-11-11T20:46:22.796Z,5.80
2018-11-11T20:48:50.179Z,6.07
2018-11-11T20:51:17.549Z,6.50
2018-11-11T20:53:45.045Z,6.17
2018-11-11T20:56:12.903Z,5.63
2018-11-11T20:58:41.596Z,5.93
2018-11-11T21:01:09.669Z,5.90
2018-11-11T21:03:37.195Z,5.93
2018-11-11T21:06:05.297Z,5.80
2018-11-11T21:08:32.589Z,5.80
2018-11-11T21:10:59.924Z,5.53
2018-11-11T21:13:28.279Z,5.43
2018-11-11T21:15:55.890Z,6.17
2018-11-11T21:18:24.144Z,5.80
2018-11-11T21:20:51.370Z,5.57
2018-11-11T21:23:18.617Z,5.23
2018-11-11T21:25:45.870Z,5.00
2018-11-11T21:28:14.020Z,5.30
2018-11-11T21:30:41.283Z,5.57
2018-11-11T21:33:08.534Z,5.30
2018-11-11T21:35:35.741Z,5.03
2018-11-11T21:38:03.030Z,5.70
2018-11-11T21:40:30.236Z,4.70
2018-11-11T21:42:57.513Z,4.60
2018-11-11T21:45:25.690Z,5.47
2018-11-11T21:47:52.981Z,4.83
2018-11-11T21:50:21.394Z,5.27
2018-11-11T21:53:27.369Z,4.93
2018-11-11T21:55:54.569Z,5.37
2018-11-11T21:58:21.996Z,5.10
2018-11-11T22:00:59.826Z,4.40
2018-11-11T22:03:27.199Z,5.57
2018-11-11T22:05:54.877Z,4.73
2018-11-11T22:08:22.583Z,5.47
2018-11-11T22:10:50.220Z,5.03
2018-11-11T22:13:17.990Z,5.27
2018-11-11T22:15:45.330Z,5.17
2018-11-11T22:18:12.594Z,5.20
2018-11-11T22:20:39.842Z,5.10
2018-11-11T22:23:07.628Z,5.23
2018-11-11T22:25:35.142Z,5.13
2018-11-11T22:28:02.728Z,5.27
2018-11-11T22:30:30.034Z,5.20
2018-11-11T22:32:57.422Z,4.70
2018-11-11T22:35:24.819Z,5.20
2018-11-11T22:37:52.293Z,5.73
2018-11-11T22:40:19.517Z,5.63
2018-11-11T22:42:46.821Z,5.73
2018-11-11T22:45:14.853Z,5.50
2018-11-11T22:47:42.198Z,5.37
2018-11-11T22:50:12.929Z,5.53
2018-11-11T22:52:40.286Z,4.73
2018-11-11T22:55:08.749Z,5.03
2018-11-11T22:57:36.111Z,5.13
2018-11-11T23:00:06.812Z,5.83
2018-11-11T23:02:34.118Z,5.30
2018-11-11T23:05:01.529Z,4.83
2018-11-11T23:07:28.785Z,5.57
2018-11-11T23:09:56.233Z,5.73
2018-11-11T23:12:23.494Z,5.00
2018-11-11T23:14:50.961Z,5.03
2018-11-11T23:17:18.624Z,5.23
2018-11-11T23:19:45.994Z,4.90
2018-11-11T23:22:13.770Z,5.07
2018-11-11T23:24:41.137Z,4.67
2018-11-11T23:27:08.902Z,5.10
2018-11-11T23:29:36.408Z,4.57
2018-11-11T23:32:03.704Z,4.47
2018-11-11T23:34:31.164Z,4.87
2018-11-11T23:36:58.720Z,4.70
2018-11-11T23:39:26.154Z,4.97
2018-11-11T23:41:53.914Z,4.17
2018-11-11T23:44:21.607Z,4.40
2018-11-11T23:46:49.126Z,4.10
2018-11-11T23:49:16.406Z,4.23
2018-11-11T23:51:43.734Z,4.47
2018-11-11T23:54:11.744Z,4.67
2018-11-11T23:56:39.000Z,4.43
2018-11-11T23:59:06.324Z,4.03
